createdAt,value
2018-05-16T00:01:16.312Z,11.67
2018-05-16T00:03:43.808Z,11.33
2018-05-16T00:06:11.360Z,11.70
2018-05-16T00:08:38.881Z,11.47
2018-05-16T00:11:06.437Z,10.37
2018-05-16T00:13:33.945Z,13.57
2018-05-16T00:16:01.842Z,10.90
2018-05-16T00:18:29.372Z,11.53
2018-05-16T00:20:56.886Z,11.73
2018-05-16T00:23:24.461Z,11.20
2018-05-16T00:25:51.981Z,11.80
2018-05-16T00:28:19.612Z,10.60
2018-05-16T00:30:47.120Z,11.00
2018-05-16T00:33:14.683Z,12.43
2018-05-16T00:35:42.205Z,12.30
2018-05-16T00:38:09.750Z,11.87
2018-05-16T00:40:37.322Z,13.37
2018-05-16T00:43:04.881Z,12.50
2018-05-16T00:45:32.385Z,12.97
2018-05-16T00:47:59.885Z,12.57
2018-05-16T00:50:27.441Z,13.70
2018-05-16T00:52:54.955Z,13.47
2018-05-16T00:55:22.500Z,13.70
2018-05-16T00:57:50.413Z,12.37
2018-05-16T01:00:18.165Z,11.93
2018-05-16T01:02:45.670Z,12.67
2018-05-16T01:05:13.221Z,12.03
2018-05-16T01:07:40.934Z,13.27
2018-05-16T01:10:08.481Z,14.07
2018-05-16T01:12:35.998Z,13.83
2018-05-16T01:15:03.541Z,12.53
2018-05-16T01:17:31.057Z,12.10
2018-05-16T01:19:58.625Z,12.00
2018-05-16T01:22:26.144Z,13.60
2018-05-16T01:24:53.745Z,12.13
2018-05-16T01:27:21.291Z,11.93
2018-05-16T01:29:48.821Z,11.73
2018-05-16T01:32:16.352Z,12.90
2018-05-16T01:34:44.253Z,11.80
2018-05-16T01:37:11.787Z,12.17
2018-05-16T01:39:39.369Z,12.37
2018-05-16T01:42:06.909Z,13.67
2018-05-16T01:44:34.602Z,13.93
2018-05-16T01:47:02.151Z,12.47
2018-05-16T01:49:29.681Z,15.57
2018-05-16T01:51:57.214Z,12.63
2018-05-16T01:54:25.211Z,12.70
2018-05-16T01:56:52.874Z,12.23
2018-05-16T01:59:20.387Z,12.57
2018-05-16T02:01:47.890Z,12.67
2018-05-16T02:04:15.442Z,12.63
2018-05-16T02:06:42.945Z,12.73
2018-05-16T02:09:10.477Z,13.83
2018-05-16T02:11:37.993Z,12.70
2018-05-16T02:14:05.546Z,12.77
2018-05-16T02:16:33.112Z,12.90
2018-05-16T02:19:00.783Z,13.30
2018-05-16T02:21:28.444Z,13.43
2018-05-16T02:23:56.020Z,13.33
2018-05-16T02:26:23.549Z,13.43
2018-05-16T02:28:51.109Z,13.53
2018-05-16T02:31:18.608Z,12.90
2018-05-16T02:33:46.158Z,12.77
2018-05-16T02:36:13.702Z,13.37
2018-05-16T02:38:41.254Z,14.07
2018-05-16T02:41:08.777Z,13.03
2018-05-16T02:43:36.336Z,13.10
2018-05-16T02:46:03.852Z,13.77
2018-05-16T02:48:31.359Z,13.80
2018-05-16T02:50:59.119Z,11.67
2018-05-16T02:53:26.777Z,12.87
2018-05-16T02:55:54.333Z,14.30
2018-05-16T02:58:21.840Z,13.87
2018-05-16T03:00:49.386Z,13.57
2018-05-16T03:03:16.913Z,12.90
2018-05-16T03:05:44.473Z,12.53
2018-05-16T03:08:12.113Z,12.60
2018-05-16T03:10:40.661Z,13.73
2018-05-16T03:13:08.574Z,12.57
2018-05-16T03:15:36.115Z,13.73
2018-05-16T03:18:03.614Z,12.57
2018-05-16T03:20:31.168Z,14.00
2018-05-16T03:22:58.705Z,13.10
2018-05-16T03:25:26.242Z,13.50
2018-05-16T03:27:53.814Z,13.43
2018-05-16T03:30:21.331Z,12.57
2018-05-16T03:32:48.866Z,13.53
2018-05-16T03:35:16.375Z,13.57
2018-05-16T03:37:43.921Z,13.53
2018-05-16T03:40:11.426Z,14.23
2018-05-16T03:42:38.966Z,14.13
2018-05-16T03:45:06.479Z,12.73
2018-05-16T03:47:34.021Z,12.70
2018-05-16T03:50:01.697Z,12.77
2018-05-16T03:52:29.210Z,13.40
2018-05-16T03:54:56.836Z,14.10
2018-05-16T03:57:36.149Z,12.70
2018-05-16T04:00:15.505Z,12.43
2018-05-16T04:02:54.633Z,12.83
2018-05-16T04:05:22.176Z,12.00
2018-05-16T04:07:49.678Z,12.03
2018-05-16T04:10:17.365Z,13.03
2018-05-16T04:12:45.748Z,12.60
2018-05-16T04:15:13.301Z,12.90
2018-05-16T04:17:40.806Z,15.27
2018-05-16T04:20:08.356Z,13.43
2018-05-16T04:22:35.872Z,12.83
2018-05-16T04:25:03.423Z,11.80
2018-05-16T04:27:30.929Z,12.37
2018-05-16T04:29:58.435Z,13.10
2018-05-16T04:32:25.972Z,13.10
2018-05-16T04:34:53.476Z,12.33
2018-05-16T04:37:21.013Z,12.37
2018-05-16T04:39:48.524Z,12.63
2018-05-16T04:42:16.457Z,11.43
2018-05-16T04:44:43.960Z,11.80
2018-05-16T04:47:11.510Z,11.73
2018-05-16T04:49:39.745Z,11.83
2018-05-16T04:52:07.289Z,11.83
2018-05-16T04:54:34.805Z,12.43
2018-05-16T04:57:02.374Z,11.23
2018-05-16T04:59:29.897Z,12.20
2018-05-16T05:01:57.525Z,11.90
2018-05-16T05:04:25.087Z,11.97
2018-05-16T05:06:53.021Z,12.83
2018-05-16T05:09:20.571Z,11.17
2018-05-16T05:11:48.233Z,11.23
2018-05-16T05:14:15.764Z,11.17
2018-05-16T05:16:43.553Z,10.97
2018-05-16T05:19:11.219Z,10.93
2018-05-16T05:21:38.866Z,11.77
2018-05-16T05:24:06.451Z,10.70
2018-05-16T05:26:33.945Z,11.53
2018-05-16T05:29:01.493Z,11.77
2018-05-16T05:31:29.405Z,10.87
2018-05-16T05:33:56.957Z,10.73
2018-05-16T05:36:24.481Z,10.40
2018-05-16T05:38:52.421Z,11.30
2018-05-16T05:41:19.952Z,10.53
2018-05-16T05:43:47.484Z,10.90
2018-05-16T05:46:15.037Z,10.53
2018-05-16T05:48:42.552Z,11.50
2018-05-16T05:51:10.156Z,11.57
2018-05-16T05:53:37.681Z,10.67
2018-05-16T05:56:05.244Z,10.10
2018-05-16T05:58:32.757Z,10.77
2018-05-16T06:01:00.293Z,10.20
2018-05-16T06:03:27.817Z,13.63
2018-05-16T06:05:55.361Z,10.30
2018-05-16T06:08:22.885Z,11.13
2018-05-16T06:10:50.423Z,10.27
2018-05-16T06:13:17.941Z,10.93
2018-05-16T06:15:45.552Z,10.97
2018-05-16T06:18:13.072Z,12.83
2018-05-16T06:20:40.704Z,11.07
2018-05-16T06:23:08.601Z,10.43
2018-05-16T06:25:36.161Z,10.43
2018-05-16T06:28:03.684Z,10.00
2018-05-16T06:30:31.595Z,9.60
2018-05-16T06:32:59.137Z,9.03
2018-05-16T06:35:26.650Z,9.77
2018-05-16T06:37:54.644Z,10.27
2018-05-16T06:40:22.181Z,10.20
2018-05-16T06:42:49.754Z,9.87
2018-05-16T06:45:17.256Z,8.47
2018-05-16T06:47:44.796Z,8.47
2018-05-16T06:50:12.304Z,9.87
2018-05-16T06:52:39.864Z,9.13
2018-05-16T06:55:07.441Z,9.37
2018-05-16T06:57:35.244Z,8.20
2018-05-16T07:00:02.799Z,8.47
2018-05-16T07:02:30.330Z,8.03
2018-05-16T07:04:57.963Z,7.67
2018-05-16T07:07:25.480Z,8.83
2018-05-16T07:09:53.189Z,7.20
2018-05-16T07:12:20.701Z,8.83
2018-05-16T07:14:48.670Z,8.50
2018-05-16T07:17:16.178Z,7.20
2018-05-16T07:19:43.717Z,7.87
2018-05-16T07:22:11.213Z,7.20
2018-05-16T07:24:38.755Z,7.30
2018-05-16T07:27:06.262Z,6.50
2018-05-16T07:29:33.852Z,6.57
2018-05-16T07:32:01.405Z,7.57
2018-05-16T07:34:29.000Z,7.17
2018-05-16T07:36:56.521Z,7.03
2018-05-16T07:39:24.096Z,7.00
2018-05-16T07:41:51.729Z,6.63
2018-05-16T07:44:19.281Z,6.40
2018-05-16T07:46:46.781Z,6.10
2018-05-16T07:49:14.356Z,6.50
2018-05-16T07:51:42.273Z,5.27
2018-05-16T07:54:09.841Z,6.23
2018-05-16T07:56:37.365Z,5.60
2018-05-16T07:59:04.885Z,5.43
2018-05-16T08:01:32.434Z,6.23
2018-05-16T08:03:59.935Z,6.00
2018-05-16T08:06:27.496Z,5.90
2018-05-16T08:08:55.021Z,4.13
2018-05-16T08:11:23.019Z,5.57
2018-05-16T08:13:50.517Z,4.47
2018-05-16T08:16:18.077Z,5.30
2018-05-16T08:18:45.606Z,4.70
2018-05-16T08:21:13.156Z,5.57
2018-05-16T08:23:40.669Z,5.30
2018-05-16T08:26:08.214Z,5.20
2018-05-16T08:28:36.113Z,5.17
2018-05-16T08:31:03.705Z,4.87
2018-05-16T08:33:31.234Z,4.43
2018-05-16T08:35:58.756Z,4.93
2018-05-16T08:38:26.375Z,4.93
2018-05-16T08:40:53.881Z,4.70
2018-05-16T08:43:21.443Z,4.97
2018-05-16T08:45:48.964Z,5.00
2018-05-16T08:48:16.518Z,4.30
2018-05-16T08:50:44.122Z,4.13
2018-05-16T08:53:11.673Z,4.03
2018-05-16T08:55:39.223Z,4.53
2018-05-16T08:58:06.892Z,4.20
2018-05-16T09:00:34.390Z,4.60
2018-05-16T09:03:01.942Z,3.73
2018-05-16T09:05:29.459Z,4.00
2018-05-16T09:07:57.128Z,4.57
2018-05-16T09:10:24.624Z,3.87
2018-05-16T09:12:52.161Z,3.33
2018-05-16T09:15:19.891Z,4.37
2018-05-16T09:17:47.441Z,4.07
2018-05-16T09:20:14.978Z,4.20
2018-05-16T09:22:42.492Z,4.67
2018-05-16T09:25:10.139Z,4.17
2018-05-16T09:27:37.591Z,4.83
2018-05-16T09:30:05.124Z,4.13
2018-05-16T09:32:32.629Z,4.30
2018-05-16T09:35:00.342Z,4.20
2018-05-16T09:37:27.859Z,4.30
2018-05-16T09:39:55.787Z,4.80
2018-05-16T09:42:23.334Z,5.07
2018-05-16T09:44:50.872Z,5.17
2018-05-16T09:47:18.397Z,5.47
2018-05-16T09:49:45.925Z,4.03
2018-05-16T09:52:13.438Z,5.10
2018-05-16T09:54:41.013Z,4.23
2018-05-16T09:57:08.657Z,4.13
2018-05-16T09:59:36.197Z,4.20
2018-05-16T10:02:03.744Z,4.20
2018-05-16T10:04:31.266Z,4.50
2018-05-16T10:06:58.805Z,3.77
2018-05-16T10:09:26.342Z,4.33
2018-05-16T10:11:53.879Z,4.40
2018-05-16T10:14:21.385Z,3.70
2018-05-16T10:16:48.931Z,3.20
2018-05-16T10:19:16.429Z,3.50
2018-05-16T10:21:44.106Z,3.57
2018-05-16T10:24:11.621Z,3.97
2018-05-16T10:26:39.181Z,3.00
2018-05-16T10:29:06.692Z,2.40
2018-05-16T10:31:34.221Z,2.50
2018-05-16T10:34:01.728Z,2.63
2018-05-16T10:36:29.272Z,2.50
2018-05-16T10:38:56.805Z,3.13
2018-05-16T10:41:24.311Z,2.40
2018-05-16T10:43:51.853Z,2.60
2018-05-16T10:46:19.442Z,2.00
2018-05-16T10:48:46.941Z,2.30
2018-05-16T10:51:14.459Z,2.10
2018-05-16T10:53:41.994Z,2.07
2018-05-16T10:56:09.585Z,2.20
2018-05-16T10:58:37.130Z,1.43
2018-05-16T11:01:04.629Z,1.83
2018-05-16T11:03:32.185Z,1.53
2018-05-16T11:05:59.689Z,1.30
2018-05-16T11:08:27.649Z,1.53
2018-05-16T11:10:55.148Z,1.60
2018-05-16T11:13:22.661Z,1.40
2018-05-16T11:15:50.603Z,1.37
2018-05-16T11:18:18.312Z,1.50
2018-05-16T11:20:45.836Z,2.13
2018-05-16T11:23:13.831Z,1.43
2018-05-16T11:25:41.494Z,1.77
2018-05-16T11:28:08.991Z,1.60
2018-05-16T11:30:36.585Z,1.30
2018-05-16T11:33:04.129Z,1.37
2018-05-16T11:35:32.068Z,1.80
2018-05-16T11:37:59.561Z,1.77
2018-05-16T11:40:27.093Z,1.60
2018-05-16T11:42:54.800Z,1.73
2018-05-16T11:45:22.276Z,1.13
2018-05-16T11:47:49.800Z,1.57
2018-05-16T11:50:17.457Z,1.10
2018-05-16T11:52:44.963Z,1.90
2018-05-16T11:55:12.508Z,1.47
2018-05-16T11:57:40.027Z,1.20
2018-05-16T12:00:07.701Z,1.30
2018-05-16T12:02:35.203Z,1.10
2018-05-16T12:05:02.713Z,1.47
2018-05-16T12:07:30.249Z,1.47
2018-05-16T12:09:57.772Z,1.30
2018-05-16T12:12:25.323Z,1.97
2018-05-16T12:14:52.919Z,1.23
2018-05-16T12:17:20.415Z,1.10
2018-05-16T12:19:47.969Z,1.47
2018-05-16T12:22:15.513Z,1.20
2018-05-16T12:24:43.029Z,1.10
2018-05-16T12:27:10.801Z,1.30
2018-05-16T12:29:38.258Z,1.42
2018-05-16T12:32:05.810Z,1.95
2018-05-16T12:34:33.478Z,1.40
2018-05-16T12:37:01.024Z,1.37
2018-05-16T12:39:28.527Z,1.23
2018-05-16T12:41:56.085Z,1.30
2018-05-16T12:44:23.611Z,1.00
2018-05-16T12:46:51.165Z,1.07
2018-05-16T12:49:18.739Z,0.90
2018-05-16T12:51:46.286Z,1.07
2018-05-16T12:54:13.809Z,1.10
2018-05-16T12:56:41.332Z,0.90
2018-05-16T12:59:08.848Z,0.77
2018-05-16T13:01:36.566Z,0.65
2018-05-16T13:04:04.019Z,0.82
2018-05-16T13:06:31.949Z,0.90
2018-05-16T13:08:59.456Z,0.90
2018-05-16T13:11:27.141Z,0.90
2018-05-16T13:13:54.643Z,0.97
2018-05-16T13:16:22.193Z,0.87
2018-05-16T13:18:49.918Z,0.80
2018-05-16T13:21:17.477Z,1.10
2018-05-16T13:23:45.001Z,0.77
2018-05-16T13:26:12.569Z,1.08
2018-05-16T13:28:40.079Z,0.87
2018-05-16T13:31:07.636Z,0.90
2018-05-16T13:33:35.146Z,1.10
2018-05-16T13:36:02.657Z,0.80
2018-05-16T13:38:30.197Z,1.03
2018-05-16T13:40:57.716Z,0.90
2018-05-16T13:43:25.270Z,1.20
2018-05-16T13:45:52.788Z,1.10
2018-05-16T13:48:20.737Z,1.15
2018-05-16T13:50:48.261Z,1.10
2018-05-16T13:53:15.804Z,1.20
2018-05-16T13:55:43.401Z,1.48
2018-05-16T13:58:10.934Z,1.65
2018-05-16T14:00:38.475Z,1.83
2018-05-16T14:03:06.052Z,2.10
2018-05-16T14:05:33.569Z,2.17
2018-05-16T14:08:01.105Z,2.22
2018-05-16T14:10:29.003Z,2.43
2018-05-16T14:12:56.521Z,2.17
2018-05-16T14:15:24.112Z,2.37
2018-05-16T14:17:51.753Z,2.30
2018-05-16T14:20:19.273Z,2.50
2018-05-16T14:22:46.999Z,2.37
2018-05-16T14:25:14.507Z,2.75
2018-05-16T14:27:42.441Z,2.72
2018-05-16T14:30:09.960Z,2.93
2018-05-16T14:32:37.471Z,2.53
2018-05-16T14:35:05.005Z,3.00
2018-05-16T14:37:33.193Z,3.40
2018-05-16T14:40:00.749Z,3.37
2018-05-16T14:42:28.271Z,2.87
2018-05-16T14:44:55.801Z,3.27
2018-05-16T14:47:23.363Z,2.97
2018-05-16T14:49:50.913Z,3.37
2018-05-16T14:52:18.435Z,3.60
2018-05-16T14:54:46.143Z,3.50
2018-05-16T14:57:13.659Z,3.17
2018-05-16T14:59:41.600Z,3.13
2018-05-16T15:02:09.129Z,3.80
2018-05-16T15:04:36.682Z,3.35
2018-05-16T15:07:04.342Z,4.00
2018-05-16T15:09:32.109Z,3.70
2018-05-16T15:11:59.629Z,3.45
2018-05-16T15:14:27.202Z,3.17
2018-05-16T15:16:54.762Z,3.83
2018-05-16T15:19:22.321Z,4.00
2018-05-16T15:21:49.878Z,4.70
2018-05-16T15:24:17.392Z,4.27
2018-05-16T15:26:45.301Z,3.62
2018-05-16T15:29:12.800Z,3.70
2018-05-16T15:31:40.354Z,4.03
2018-05-16T15:34:07.881Z,3.50
2018-05-16T15:36:35.441Z,3.72
2018-05-16T15:39:03.011Z,3.08
2018-05-16T15:41:30.561Z,3.42
2018-05-16T15:43:58.087Z,3.63
2018-05-16T15:46:25.612Z,3.90
2018-05-16T15:48:53.849Z,3.30
2018-05-16T15:51:21.385Z,4.17
2018-05-16T15:53:48.905Z,3.70
2018-05-16T15:56:16.460Z,4.25
2018-05-16T15:58:44.361Z,6.22
2018-05-16T16:01:12.008Z,5.65
2018-05-16T16:03:39.566Z,5.72
2018-05-16T16:06:07.081Z,3.83
2018-05-16T16:08:35.012Z,3.77
2018-05-16T16:11:02.512Z,3.97
2018-05-16T16:13:30.047Z,4.43
2018-05-16T16:15:57.569Z,4.80
2018-05-16T16:18:25.129Z,3.87
2018-05-16T16:20:52.645Z,4.27
2018-05-16T16:23:20.183Z,4.27
2018-05-16T16:25:47.709Z,4.30
2018-05-16T16:28:15.269Z,4.37
2018-05-16T16:30:42.785Z,4.78
2018-05-16T16:33:10.288Z,6.00
2018-05-16T16:35:37.900Z,4.67
2018-05-16T16:38:05.420Z,5.40
2018-05-16T16:40:33.359Z,5.80
2018-05-16T16:43:01.072Z,5.07
2018-05-16T16:45:28.734Z,6.12
2018-05-16T16:47:56.242Z,5.40
2018-05-16T16:50:23.765Z,5.17
2018-05-16T16:52:51.272Z,1.30
2018-05-16T16:55:18.819Z,0.90
2018-05-16T16:57:46.737Z,0.90
2018-05-16T17:00:14.244Z,1.10
2018-05-16T17:02:41.836Z,0.93
2018-05-16T17:05:09.345Z,0.70
2018-05-16T17:07:36.871Z,0.93
2018-05-16T17:10:04.383Z,1.10
2018-05-16T17:12:31.925Z,1.27
2018-05-16T17:14:59.433Z,1.30
2018-05-16T17:17:26.973Z,1.00
2018-05-16T17:19:54.489Z,1.00
2018-05-16T17:22:21.997Z,1.53
2018-05-16T17:24:49.758Z,2.20
2018-05-16T17:27:17.288Z,2.80
2018-05-16T17:29:44.872Z,1.57
2018-05-16T17:32:12.414Z,1.90
2018-05-16T17:34:39.969Z,2.10
2018-05-16T17:37:07.493Z,1.50
2018-05-16T17:39:35.021Z,1.00
2018-05-16T17:42:02.541Z,0.90
2018-05-16T17:44:30.073Z,1.10
2018-05-16T17:46:57.759Z,1.60
2018-05-16T17:49:25.302Z,1.07
2018-05-16T17:51:52.813Z,1.20
2018-05-16T17:54:20.344Z,1.23
2018-05-16T17:56:47.860Z,4.27
2018-05-16T17:59:15.393Z,2.33
2018-05-16T18:01:42.904Z,1.10
2018-05-16T18:04:10.449Z,1.97
2018-05-16T18:06:38.030Z,2.50
2018-05-16T18:09:05.505Z,2.33
2018-05-16T18:11:33.126Z,2.97
2018-05-16T18:14:12.448Z,2.63
2018-05-16T18:16:51.966Z,3.50
2018-05-16T18:19:19.489Z,3.07
2018-05-16T18:21:47.425Z,2.93
2018-05-16T18:24:14.921Z,2.63
2018-05-16T18:26:42.444Z,2.67
2018-05-16T18:29:09.937Z,3.67
2018-05-16T18:31:37.493Z,2.30
2018-05-16T18:34:05.021Z,2.00
2018-05-16T18:36:32.577Z,2.07
2018-05-16T18:39:00.072Z,2.00
2018-05-16T18:41:27.601Z,1.60
2018-05-16T18:43:55.494Z,1.47
2018-05-16T18:46:23.058Z,2.03
2018-05-16T18:48:50.569Z,2.57
2018-05-16T18:51:18.113Z,1.67
2018-05-16T18:53:45.630Z,2.60
2018-05-16T18:56:13.161Z,1.80
2018-05-16T18:58:41.057Z,2.00
2018-05-16T19:01:08.589Z,1.60
2018-05-16T19:03:36.106Z,1.33
2018-05-16T19:06:03.638Z,1.70
2018-05-16T19:08:31.149Z,1.50
2018-05-16T19:10:58.821Z,1.57
2018-05-16T19:13:26.333Z,1.30
2018-05-16T19:15:53.874Z,1.70
2018-05-16T19:18:21.398Z,1.17
2018-05-16T19:20:48.893Z,1.20
2018-05-16T19:23:16.425Z,1.70
2018-05-16T19:25:43.942Z,1.40
2018-05-16T19:28:11.469Z,2.20
2018-05-16T19:30:38.997Z,2.23
2018-05-16T19:33:06.540Z,1.73
2018-05-16T19:35:34.201Z,2.43
2018-05-16T19:38:01.747Z,1.90
2018-05-16T19:40:29.293Z,2.30
2018-05-16T19:42:56.825Z,2.37
2018-05-16T19:45:24.725Z,2.40
2018-05-16T19:47:52.265Z,2.87
2018-05-16T19:50:19.778Z,2.70
2018-05-16T19:52:47.306Z,2.83
2018-05-16T19:55:14.860Z,3.13
2018-05-16T19:57:42.394Z,3.00
2018-05-16T20:00:09.968Z,3.47
2018-05-16T20:02:37.496Z,3.20
2018-05-16T20:05:05.022Z,2.83
2018-05-16T20:07:32.578Z,3.77
2018-05-16T20:10:00.101Z,4.23
2018-05-16T20:12:27.597Z,3.87
2018-05-16T20:14:55.272Z,4.80
2018-05-16T20:17:23.078Z,4.57
2018-05-16T20:19:50.621Z,4.83
2018-05-16T20:22:18.149Z,4.00
2018-05-16T20:24:45.672Z,5.50
2018-05-16T20:27:13.381Z,5.10
2018-05-16T20:29:40.924Z,5.63
2018-05-16T20:32:08.436Z,5.93
2018-05-16T20:34:36.155Z,7.20
2018-05-16T20:37:03.811Z,7.40
2018-05-16T20:39:31.369Z,7.73
2018-05-16T20:41:58.931Z,7.90
2018-05-16T20:44:26.448Z,7.37
2018-05-16T20:46:54.088Z,8.60
2018-05-16T20:49:21.603Z,8.40
2018-05-16T20:51:49.129Z,9.03
2018-05-16T20:54:16.823Z,8.40
2018-05-16T20:56:44.465Z,7.43
2018-05-16T20:59:12.125Z,9.87
2018-05-16T21:01:39.789Z,9.50
2018-05-16T21:04:07.309Z,8.80
2018-05-16T21:06:35.239Z,8.83
2018-05-16T21:09:02.740Z,9.70
2018-05-16T21:11:30.297Z,9.60
2018-05-16T21:13:57.816Z,9.17
2018-05-16T21:16:25.552Z,9.77
2018-05-16T21:18:53.054Z,9.40
2018-05-16T21:21:21.059Z,9.13
2018-05-16T21:23:48.581Z,9.57
2018-05-16T21:26:16.480Z,9.17
2018-05-16T21:28:44.134Z,9.57
2018-05-16T21:31:11.561Z,9.13
2018-05-16T21:33:39.491Z,10.13
2018-05-16T21:36:07.089Z,8.50
2018-05-16T21:38:34.669Z,8.73
2018-05-16T21:41:02.165Z,8.83
2018-05-16T21:43:29.705Z,8.90
2018-05-16T21:45:57.212Z,8.63
2018-05-16T21:48:24.740Z,9.27
2018-05-16T21:50:52.245Z,8.93
2018-05-16T21:53:19.790Z,9.00
2018-05-16T21:55:47.301Z,9.40
2018-05-16T21:58:14.855Z,8.47
2018-05-16T22:00:42.381Z,9.03
2018-05-16T22:03:09.873Z,8.97
2018-05-16T22:05:37.433Z,8.83
2018-05-16T22:08:05.369Z,8.80
2018-05-16T22:10:32.984Z,8.67
2018-05-16T22:13:00.457Z,9.27
2018-05-16T22:15:28.104Z,8.50
2018-05-16T22:17:55.609Z,9.23
2018-05-16T22:20:23.158Z,9.40
2018-05-16T22:22:50.684Z,10.27
2018-05-16T22:25:18.221Z,9.77
2018-05-16T22:27:45.740Z,8.70
2018-05-16T22:30:12.753Z,9.07
2018-05-16T22:32:45.909Z,8.50
2018-05-16T22:35:19.055Z,8.27
2018-05-16T22:37:52.257Z,8.40
2018-05-16T22:40:25.388Z,8.60
2018-05-16T22:42:52.436Z,9.60
2018-05-16T22:45:22.826Z,9.97
2018-05-16T22:47:50.730Z,8.53
2018-05-16T22:50:18.257Z,7.67
2018-05-16T22:52:45.800Z,8.20
2018-05-16T22:55:13.728Z,8.77
2018-05-16T22:57:41.275Z,8.60
2018-05-16T23:00:08.782Z,8.93
2018-05-16T23:02:36.344Z,8.60
2018-05-16T23:05:03.870Z,8.93
2018-05-16T23:07:31.443Z,8.80
2018-05-16T23:09:58.957Z,9.23
2018-05-16T23:12:26.494Z,8.23
2018-05-16T23:14:54.006Z,9.13
2018-05-16T23:17:21.944Z,9.00
2018-05-16T23:19:49.453Z,8.57
2018-05-16T23:22:16.993Z,8.07
2018-05-16T23:24:44.690Z,9.03
2018-05-16T23:27:12.212Z,9.37
2018-05-16T23:29:39.756Z,8.27
2018-05-16T23:32:07.287Z,7.63
2018-05-16T23:34:34.831Z,8.00
2018-05-16T23:37:02.348Z,8.23
2018-05-16T23:39:29.896Z,8.77
2018-05-16T23:41:57.409Z,8.40
2018-05-16T23:44:24.961Z,8.17
2018-05-16T23:46:52.586Z,8.20
2018-05-16T23:49:20.143Z,8.67
2018-05-16T23:51:47.648Z,8.50
2018-05-16T23:54:15.345Z,7.50
2018-05-16T23:56:42.855Z,7.57
2018-05-16T23:59:10.394Z,7.53
